Time;durP1;ratioP1;P1;durP2;ratioP2;P2;SDS_P1;SDS_P2;PMS_P1;PMS_P2;Temp;Humidity;BMP_temperature;BMP_pressure;BME280_temperature;BME280_humidity;BME280_pressure;Samples;Min_cycle;Max_cycle;Signal;HPM_P1;HPM_P2
2023/12/30 00:00:21;;;;;;;2.28;1.35;;;6.90;99.90;;;;;;4978628;28;94236;-31
2023/12/30 00:02:48;;;;;;;2.38;1.10;;;6.90;99.90;;;;;;4978402;28;94253;-30
2023/12/30 00:05:14;;;;;;;9.30;2.00;;;6.90;99.90;;;;;;4978448;28;93453;-29
2023/12/30 00:07:39;;;;;;;8.48;2.20;;;6.80;99.90;;;;;;4978994;28;94291;-30
2023/12/30 00:10:05;;;;;;;1.90;0.90;;;6.80;99.90;;;;;;4977719;28;94626;-30
2023/12/30 00:12:31;;;;;;;11.00;1.85;;;6.80;99.90;;;;;;4979507;28;93995;-32
2023/12/30 00:14:56;;;;;;;1.85;1.70;;;6.70;99.90;;;;;;4978306;28;93797;-31
2023/12/30 00:17:22;;;;;;;2.50;1.30;;;6.70;99.90;;;;;;4978464;28;93186;-32
2023/12/30 00:19:48;;;;;;;4.55;2.08;;;6.80;99.90;;;;;;4977803;28;96570;-32
2023/12/30 00:22:13;;;;;;;4.32;1.25;;;6.80;99.90;;;;;;4978061;28;95465;-30
2023/12/30 00:24:42;;;;;;;5.43;1.83;;;6.80;99.90;;;;;;4978070;28;93649;-33
2023/12/30 00:27:08;;;;;;;9.98;2.42;;;6.80;99.90;;;;;;4978591;28;94756;-33
2023/12/30 00:29:38;;;;;;;1.88;1.35;;;6.80;99.90;;;;;;4976735;28;95222;-31
2023/12/30 00:32:04;;;;;;;4.78;1.90;;;6.80;99.90;;;;;;4978209;28;95361;-30
2023/12/30 00:34:33;;;;;;;4.25;1.58;;;6.80;99.90;;;;;;4978522;28;93688;-31
2023/12/30 00:36:59;;;;;;;12.00;4.05;;;6.70;99.90;;;;;;4977480;28;92758;-28
2023/12/30 00:39:24;;;;;;;4.38;1.92;;;6.70;99.90;;;;;;4977636;28;94465;-32
2023/12/30 00:41:50;;;;;;;5.10;1.27;;;6.80;99.90;;;;;;4977572;28;94578;-34
2023/12/30 00:44:15;;;;;;;2.92;1.63;;;6.70;99.90;;;;;;4976402;28;95750;-30
2023/12/30 00:46:41;;;;;;;2.25;1.35;;;6.70;99.90;;;;;;4977845;28;93343;-32
2023/12/30 00:49:08;;;;;;;4.65;1.67;;;6.70;99.90;;;;;;4976368;28;94624;-29
2023/12/30 00:51:35;;;;;;;3.47;1.10;;;6.70;99.90;;;;;;4977849;28;96156;-31
2023/12/30 00:54:01;;;;;;;2.85;1.45;;;6.70;99.90;;;;;;4977148;28;93336;-31
2023/12/30 00:56:27;;;;;;;1.38;0.90;;;6.70;99.90;;;;;;4978329;28;93167;-32
2023/12/30 00:58:53;;;;;;;7.07;1.42;;;6.70;99.90;;;;;;4976740;28;95265;-35
2023/12/30 01:01:18;;;;;;;3.13;1.20;;;6.70;99.90;;;;;;4978059;28;93816;-32
2023/12/30 01:03:44;;;;;;;5.20;1.83;;;6.70;99.90;;;;;;4977926;28;94658;-32
2023/12/30 01:06:09;;;;;;;7.20;4.13;;;6.60;99.90;;;;;;4977627;28;94084;-33
2023/12/30 01:08:35;;;;;;;15.90;2.05;;;6.70;99.90;;;;;;4977215;28;95692;-29
2023/12/30 01:11:01;;;;;;;4.32;2.42;;;6.60;99.90;;;;;;4977147;28;94988;-30
2023/12/30 01:13:26;;;;;;;1.92;1.13;;;6.60;99.90;;;;;;4977990;28;93973;-29
2023/12/30 01:15:52;;;;;;;1.20;0.93;;;6.60;99.90;;;;;;4977388;28;94396;-31
2023/12/30 01:18:18;;;;;;;1.85;1.48;;;6.50;99.90;;;;;;4977161;28;95110;-33
2023/12/30 01:20:43;;;;;;;7.45;3.17;;;6.50;99.90;;;;;;4977350;28;95030;-31
2023/12/30 01:23:09;;;;;;;5.93;1.30;;;6.50;99.90;;;;;;4977104;28;95381;-33
2023/12/30 01:25:37;;;;;;;3.17;1.10;;;6.50;99.90;;;;;;4977200;28;91792;-30
2023/12/30 01:28:03;;;;;;;3.83;1.67;;;6.50;99.90;;;;;;4976534;28;93537;-30
2023/12/30 01:30:29;;;;;;;2.90;1.65;;;6.40;99.90;;;;;;4977044;28;94334;-31
2023/12/30 01:32:55;;;;;;;8.43;2.15;;;6.40;99.90;;;;;;4976428;28;95874;-34
2023/12/30 01:35:20;;;;;;;7.43;2.05;;;6.40;99.90;;;;;;4976980;28;92740;-30
2023/12/30 01:37:46;;;;;;;7.82;1.85;;;6.40;99.90;;;;;;4977078;28;94917;-30
2023/12/30 01:40:12;;;;;;;3.17;2.03;;;6.40;99.90;;;;;;4975875;28;96479;-29
2023/12/30 01:42:40;;;;;;;1.92;1.05;;;6.30;99.90;;;;;;4977186;28;92186;-30
2023/12/30 01:45:06;;;;;;;2.28;1.70;;;6.40;99.90;;;;;;4977091;28;92833;-29
2023/12/30 01:47:31;;;;;;;3.05;1.75;;;6.40;99.90;;;;;;4976689;28;94574;-30
2023/12/30 01:49:57;;;;;;;2.97;1.52;;;6.40;99.90;;;;;;4976932;28;94344;-33
2023/12/30 01:52:23;;;;;;;4.75;1.77;;;6.40;99.90;;;;;;4977626;28;93289;-32
2023/12/30 01:54:49;;;;;;;6.90;2.17;;;6.40;99.90;;;;;;4977006;28;92116;-29
2023/12/30 01:57:15;;;;;;;7.30;3.33;;;6.40;99.90;;;;;;4975878;28;95426;-30
2023/12/30 01:59:41;;;;;;;3.60;2.28;;;6.40;99.90;;;;;;4977298;28;95592;-34
2023/12/30 02:02:06;;;;;;;6.03;2.45;;;6.40;99.90;;;;;;4976772;28;94722;-33
2023/12/30 02:04:32;;;;;;;4.78;1.60;;;6.40;99.90;;;;;;4977082;28;92960;-30
2023/12/30 02:06:57;;;;;;;4.53;2.55;;;6.40;99.90;;;;;;4975311;28;95010;-30
2023/12/30 02:09:23;;;;;;;1.50;1.08;;;6.40;99.90;;;;;;4976125;28;95173;-31
2023/12/30 02:11:49;;;;;;;4.47;1.35;;;6.40;99.90;;;;;;4976720;28;94199;-31
2023/12/30 02:14:31;;;;;;;3.60;1.67;;;6.40;99.90;;;;;;4976931;28;93480;-34
2023/12/30 02:16:57;;;;;;;4.82;1.58;;;6.40;99.90;;;;;;4975662;28;94144;-31
2023/12/30 02:19:23;;;;;;;4.55;2.00;;;6.40;99.90;;;;;;4975204;28;94364;-33
2023/12/30 02:21:50;;;;;;;5.32;1.52;;;6.40;99.90;;;;;;4976285;28;95628;-30
2023/12/30 02:24:16;;;;;;;5.22;2.50;;;6.40;99.90;;;;;;4976465;28;94646;-30
2023/12/30 02:26:41;;;;;;;1.73;1.00;;;6.40;99.90;;;;;;4976752;28;94832;-31
2023/12/30 02:29:08;;;;;;;4.63;1.73;;;6.40;99.90;;;;;;4975626;28;92599;-29
2023/12/30 02:31:36;;;;;;;9.82;2.15;;;6.40;99.90;;;;;;4976653;28;93077;-29
2023/12/30 02:34:02;;;;;;;1.17;0.90;;;6.40;99.90;;;;;;4976179;28;94130;-33
2023/12/30 02:36:28;;;;;;;2.28;1.30;;;6.40;99.90;;;;;;4976327;28;95004;-31
2023/12/30 02:38:53;;;;;;;6.32;3.03;;;6.40;99.90;;;;;;4975666;28;94380;-32
2023/12/30 02:41:19;;;;;;;4.90;3.05;;;6.40;99.90;;;;;;4976398;28;94558;-28
2023/12/30 02:44:00;;;;;;;6.15;1.80;;;6.40;99.90;;;;;;4974829;28;93557;-31
2023/12/30 02:46:26;;;;;;;1.35;1.25;;;6.40;99.90;;;;;;4975791;28;95682;-29
2023/12/30 02:48:51;;;;;;;1.95;1.77;;;6.40;99.90;;;;;;4975802;28;94957;-32
2023/12/30 02:51:18;;;;;;;6.20;2.13;;;6.40;99.90;;;;;;4976498;28;92102;-32
2023/12/30 02:53:43;;;;;;;3.47;1.75;;;6.40;99.90;;;;;;4975330;28;93358;-33
2023/12/30 02:56:22;;;;;;;2.05;1.30;;;6.30;99.90;;;;;;4975510;28;94931;-31
2023/12/30 02:58:53;;;;;;;3.67;1.95;;;6.40;99.90;;;;;;4975762;28;94881;-31
2023/12/30 03:01:19;;;;;;;6.00;1.67;;;6.40;99.90;;;;;;4976875;28;94092;-29
2023/12/30 03:03:46;;;;;;;1.88;1.25;;;6.30;99.90;;;;;;4974724;28;92145;-33
2023/12/30 03:06:14;;;;;;;1.35;1.20;;;6.30;99.90;;;;;;4974722;28;94637;-32
2023/12/30 03:08:40;;;;;;;1.85;1.23;;;6.30;99.90;;;;;;4975455;28;92641;-29
2023/12/30 03:11:09;;;;;;;8.98;1.70;;;6.30;99.90;;;;;;4976425;28;94159;-30
2023/12/30 03:13:34;;;;;;;;;;;6.30;99.90;;;;;;4976440;28;93549;-29
2023/12/30 03:16:00;;;;;;;3.63;0.90;;;6.30;99.90;;;;;;4976105;28;94503;-33
2023/12/30 03:18:25;;;;;;;16.23;1.58;;;6.30;99.90;;;;;;4975393;28;94171;-33
2023/12/30 03:20:51;;;;;;;5.40;1.48;;;6.20;99.90;;;;;;4975738;28;93170;-31
2023/12/30 03:23:17;;;;;;;6.05;1.20;;;6.20;99.90;;;;;;4975286;28;94134;-32
2023/12/30 03:25:42;;;;;;;2.22;1.20;;;6.30;99.90;;;;;;4975952;28;94648;-30
2023/12/30 03:28:08;;;;;;;3.63;1.50;;;6.20;99.90;;;;;;4974990;28;94005;-32
2023/12/30 03:30:35;;;;;;;4.35;1.83;;;6.20;99.90;;;;;;4975833;28;92541;-30
2023/12/30 03:33:00;;;;;;;6.47;1.85;;;6.20;99.90;;;;;;4974713;28;93562;-32
2023/12/30 03:35:26;;;;;;;4.95;1.95;;;6.20;99.90;;;;;;4975277;28;95254;-33
2023/12/30 03:37:52;;;;;;;8.65;1.70;;;6.10;99.90;;;;;;4974839;28;95401;-33
2023/12/30 03:40:17;;;;;;;16.20;3.25;;;6.20;99.90;;;;;;4975322;28;94331;-33
2023/12/30 03:42:43;;;;;;;2.58;1.70;;;6.10;99.90;;;;;;4975284;28;94423;-30
2023/12/30 03:45:09;;;;;;;4.13;1.52;;;6.10;99.90;;;;;;4975422;28;94870;-29
2023/12/30 03:47:34;;;;;;;4.07;2.30;;;6.10;99.90;;;;;;4975793;28;94674;-30
2023/12/30 03:50:00;;;;;;;6.18;1.52;;;6.10;99.90;;;;;;4975187;28;94459;-32
2023/12/30 03:52:26;;;;;;;5.30;1.67;;;6.10;99.90;;;;;;4975703;28;91441;-33
2023/12/30 03:54:53;;;;;;;6.38;2.13;;;6.10;99.90;;;;;;4975694;28;95771;-29
2023/12/30 03:57:18;;;;;;;1.52;1.33;;;6.10;99.90;;;;;;4975044;28;94415;-32
2023/12/30 03:59:44;;;;;;;2.85;1.45;;;6.10;99.90;;;;;;4975920;28;93855;-31
2023/12/30 04:02:09;;;;;;;4.38;1.83;;;6.10;99.90;;;;;;4975192;28;93139;-29
2023/12/30 04:04:35;;;;;;;6.63;1.98;;;6.10;99.90;;;;;;4977226;28;92844;-31
2023/12/30 04:07:01;;;;;;;4.82;2.05;;;6.10;99.90;;;;;;4978019;28;96446;-33
2023/12/30 04:09:26;;;;;;;9.25;2.67;;;6.10;99.90;;;;;;4979311;28;93822;-30
2023/12/30 04:11:52;;;;;;;6.28;1.58;;;6.00;99.90;;;;;;4978748;28;92224;-30
2023/12/30 04:14:17;;;;;;;6.78;1.67;;;6.00;99.90;;;;;;4978651;28;95365;-31
2023/12/30 04:16:43;;;;;;;11.40;2.22;;;6.00;99.90;;;;;;4978530;28;95001;-31
2023/12/30 04:19:09;;;;;;;2.22;1.17;;;6.00;99.90;;;;;;4978406;28;94716;-32
2023/12/30 04:21:34;;;;;;;5.40;1.58;;;6.00;99.90;;;;;;4978004;28;92373;-30
2023/12/30 04:24:00;;;;;;;3.58;1.30;;;5.90;99.90;;;;;;4977339;28;97110;-30
2023/12/30 04:26:25;;;;;;;3.60;1.05;;;5.90;99.90;;;;;;4977836;28;96187;-30
2023/12/30 04:28:51;;;;;;;5.97;2.30;;;5.80;99.90;;;;;;4979053;28;94655;-31
2023/12/30 04:31:16;;;;;;;14.43;2.53;;;5.80;99.90;;;;;;4977331;28;92286;-30
2023/12/30 04:33:42;;;;;;;5.35;1.67;;;5.80;99.90;;;;;;4977958;28;94661;-33
2023/12/30 04:36:08;;;;;;;3.92;1.88;;;5.80;99.90;;;;;;4977985;28;93309;-32
2023/12/30 04:38:33;;;;;;;8.32;2.22;;;5.80;99.90;;;;;;4978273;28;94345;-30
2023/12/30 04:40:59;;;;;;;8.85;2.63;;;5.80;99.90;;;;;;4978191;28;93169;-30
2023/12/30 04:43:24;;;;;;;5.97;1.92;;;5.80;99.90;;;;;;4977750;28;94478;-31
2023/12/30 04:45:50;;;;;;;5.82;1.77;;;5.70;99.90;;;;;;4978214;28;94424;-29
2023/12/30 04:48:15;;;;;;;7.40;2.50;;;5.80;99.90;;;;;;4977566;28;95653;-31
2023/12/30 04:50:42;;;;;;;3.60;1.40;;;5.70;99.90;;;;;;4978247;28;94573;-30
2023/12/30 04:53:08;;;;;;;7.68;2.15;;;5.70;99.90;;;;;;4977732;28;95048;-29
2023/12/30 04:55:33;;;;;;;1.77;1.58;;;5.70;99.90;;;;;;4977413;28;93784;-33
2023/12/30 04:58:00;;;;;;;3.13;1.85;;;5.60;99.90;;;;;;4977394;28;92152;-28
2023/12/30 05:00:26;;;;;;;7.30;3.13;;;5.60;99.90;;;;;;4977766;28;95446;-30
2023/12/30 05:02:51;;;;;;;8.35;1.75;;;5.60;99.90;;;;;;4977550;28;95029;-33
2023/12/30 05:05:17;;;;;;;4.32;1.40;;;5.60;99.90;;;;;;4977416;28;94805;-31
2023/12/30 05:07:43;;;;;;;3.08;1.27;;;5.50;99.90;;;;;;4977990;28;93639;-33
2023/12/30 05:10:10;;;;;;;7.60;2.10;;;5.50;99.90;;;;;;4977983;28;94527;-28
2023/12/30 05:12:35;;;;;;;9.75;3.03;;;5.50;99.90;;;;;;4976677;28;94950;-29
2023/12/30 05:15:01;;;;;;;2.75;1.58;;;5.40;99.90;;;;;;4977037;28;95505;-33
2023/12/30 05:17:28;;;;;;;3.90;1.50;;;5.40;99.90;;;;;;4977544;28;94441;-31
2023/12/30 05:19:54;;;;;;;2.80;1.52;;;5.40;99.90;;;;;;4976127;28;92742;-32
2023/12/30 05:22:19;;;;;;;2.97;1.25;;;5.40;99.90;;;;;;4977739;28;94413;-30
2023/12/30 05:24:45;;;;;;;5.28;2.05;;;5.40;99.90;;;;;;4977556;28;94491;-32
2023/12/30 05:27:11;;;;;;;3.28;1.38;;;5.40;99.90;;;;;;4970509;28;93571;-33
2023/12/30 05:29:37;;;;;;;3.25;2.28;;;5.40;99.90;;;;;;4977446;28;92558;-30
2023/12/30 05:32:04;;;;;;;3.17;1.48;;;5.30;99.90;;;;;;4975953;28;94371;-31
2023/12/30 05:34:29;;;;;;;1.67;1.50;;;5.30;99.90;;;;;;4977451;28;95233;-29
2023/12/30 05:36:55;;;;;;;12.90;2.42;;;5.30;99.90;;;;;;4977150;28;93684;-30
2023/12/30 05:39:21;;;;;;;5.75;1.55;;;5.30;99.90;;;;;;4977243;28;93134;-32
2023/12/30 05:41:46;;;;;;;2.78;1.85;;;5.30;99.90;;;;;;4977249;28;94839;-30
2023/12/30 05:44:12;;;;;;;4.65;2.70;;;5.30;99.90;;;;;;4975744;28;94572;-29
2023/12/30 05:46:37;;;;;;;6.53;1.55;;;5.30;99.90;;;;;;4977824;28;92116;-30
2023/12/30 05:49:03;;;;;;;4.95;1.70;;;5.30;99.90;;;;;;4976207;28;94539;-31
2023/12/30 05:51:29;;;;;;;3.38;1.80;;;5.30;99.90;;;;;;4977174;28;94801;-32
2023/12/30 05:53:54;;;;;;;4.78;2.35;;;5.30;99.90;;;;;;4975039;28;94610;-31
2023/12/30 05:56:22;;;;;;;6.88;1.55;;;5.30;99.90;;;;;;4977144;28;92831;-30
2023/12/30 05:58:48;;;;;;;10.20;1.95;;;5.30;99.90;;;;;;4977586;28;93409;-32
2023/12/30 06:01:13;;;;;;;8.95;3.20;;;5.20;99.90;;;;;;4976011;28;97358;-29
2023/12/30 06:03:39;;;;;;;2.20;1.55;;;5.30;99.90;;;;;;4976011;28;95489;-31
2023/12/30 06:06:05;;;;;;;6.00;2.00;;;5.20;99.90;;;;;;4976583;28;92679;-30
2023/12/30 06:08:32;;;;;;;19.45;1.95;;;5.30;99.90;;;;;;4976236;28;93304;-29
2023/12/30 06:10:58;;;;;;;3.50;2.40;;;5.30;99.90;;;;;;4976847;28;94516;-32
2023/12/30 06:13:24;;;;;;;1.80;1.58;;;5.20;99.90;;;;;;4976608;28;94731;-29
2023/12/30 06:15:51;;;;;;;3.00;1.95;;;5.30;99.90;;;;;;4977107;28;93209;-32
2023/12/30 06:18:18;;;;;;;4.90;2.13;;;5.30;99.90;;;;;;4975786;28;92505;-32
2023/12/30 06:20:46;;;;;;;11.25;1.60;;;5.30;99.90;;;;;;4976027;28;94607;-32
2023/12/30 06:23:15;;;;;;;5.10;2.75;;;5.30;99.90;;;;;;4976377;28;95962;-29
2023/12/30 06:25:41;;;;;;;;;;;5.30;99.90;;;;;;4977234;28;93006;-31
2023/12/30 06:28:07;;;;;;;5.68;1.70;;;5.30;99.90;;;;;;4975286;28;92784;-30
2023/12/30 06:30:32;;;;;;;7.65;2.60;;;5.30;99.90;;;;;;4975836;28;96638;-32
2023/12/30 06:33:01;;;;;;;6.40;1.70;;;5.40;99.90;;;;;;4975620;28;94595;-30
2023/12/30 06:35:27;;;;;;;4.05;1.15;;;5.40;99.90;;;;;;4977426;28;92734;-31
2023/12/30 06:37:52;;;;;;;4.78;2.20;;;5.40;99.90;;;;;;4976477;28;93526;-31
2023/12/30 06:40:18;;;;;;;5.50;1.63;;;5.40;99.90;;;;;;4975164;28;95438;-31
2023/12/30 06:42:45;;;;;;;4.13;1.70;;;5.40;99.90;;;;;;4976622;28;94170;-31
2023/12/30 06:45:10;;;;;;;6.28;3.03;;;5.40;99.90;;;;;;4976207;28;93076;-30
2023/12/30 06:47:36;;;;;;;8.60;3.13;;;5.30;99.90;;;;;;4974583;28;93469;-30
2023/12/30 06:50:01;;;;;;;2.72;1.35;;;5.30;99.90;;;;;;4975792;28;95970;-29
2023/12/30 06:52:27;;;;;;;3.42;2.08;;;5.30;99.90;;;;;;4975544;28;95607;-32
2023/12/30 06:54:53;;;;;;;9.25;2.10;;;5.30;99.90;;;;;;4976397;28;92227;-33
2023/12/30 06:57:19;;;;;;;2.55;1.23;;;5.40;99.90;;;;;;4975966;28;93105;-32
2023/12/30 06:59:45;;;;;;;12.38;2.58;;;5.40;99.90;;;;;;4976409;28;94840;-31
2023/12/30 07:02:10;;;;;;;9.13;2.13;;;5.40;99.90;;;;;;4975598;28;94242;-31
2023/12/30 07:04:36;;;;;;;4.30;1.88;;;5.50;99.90;;;;;;4975837;28;94146;-32
2023/12/30 07:07:01;;;;;;;6.90;2.30;;;5.50;99.90;;;;;;4975049;28;93544;-31
2023/12/30 07:09:27;;;;;;;8.65;1.85;;;5.50;99.90;;;;;;4975831;28;94603;-30
2023/12/30 07:11:52;;;;;;;4.40;1.23;;;5.50;99.90;;;;;;4975734;28;94455;-35
2023/12/30 07:14:18;;;;;;;11.80;2.25;;;5.50;99.90;;;;;;4975297;28;95989;-29
2023/12/30 07:16:49;;;;;;;4.68;1.60;;;5.40;99.90;;;;;;4974784;28;94213;-33
2023/12/30 07:19:14;;;;;;;5.75;2.83;;;5.40;99.90;;;;;;4970184;28;93638;-30
2023/12/30 07:21:40;;;;;;;6.22;3.17;;;5.40;99.90;;;;;;4976031;28;94524;-32
2023/12/30 07:24:06;;;;;;;3.83;1.33;;;5.40;99.90;;;;;;4975353;28;92077;-30
2023/12/30 07:26:32;;;;;;;6.60;1.85;;;5.40;99.90;;;;;;4975794;28;93595;-32
2023/12/30 07:28:59;;;;;;;4.78;2.90;;;5.40;99.90;;;;;;4975889;28;95562;-30
2023/12/30 07:31:25;;;;;;;7.30;4.15;;;5.40;99.90;;;;;;4975587;28;94391;-33
2023/12/30 07:33:51;;;;;;;4.50;1.05;;;5.30;99.90;;;;;;4976410;28;95132;-29
2023/12/30 07:36:17;;;;;;;6.18;2.13;;;5.30;99.90;;;;;;4974676;28;93172;-32
2023/12/30 07:38:43;;;;;;;5.20;1.48;;;5.20;99.90;;;;;;4976704;28;96190;-29
2023/12/30 07:41:09;;;;;;;3.25;1.55;;;5.10;99.90;;;;;;4979177;28;94879;-28
2023/12/30 07:43:35;;;;;;;4.95;1.27;;;5.10;99.90;;;;;;4978793;28;92955;-30
2023/12/30 07:46:00;;;;;;;3.50;1.80;;;5.10;99.90;;;;;;5037944;22;94320;-30
2023/12/30 07:48:29;;;;;;;8.23;2.60;;;5.10;99.90;;;;;;5001070;28;93513;-31
2023/12/30 07:50:54;;;;;;;5.60;1.67;;;5.00;99.90;;;;;;5000173;28;94163;-28
2023/12/30 07:53:20;;;;;;;5.00;2.88;;;5.00;99.90;;;;;;5015840;28;94404;-33
2023/12/30 07:55:45;;;;;;;4.85;1.55;;;5.00;99.90;;;;;;5016475;28;91460;-33
2023/12/30 07:58:11;;;;;;;3.47;1.80;;;5.00;99.90;;;;;;5008777;28;94128;-31
2023/12/30 08:00:37;;;;;;;4.85;2.15;;;5.00;99.90;;;;;;5015522;28;95795;-31
2023/12/30 08:03:03;;;;;;;11.02;1.65;;;5.00;99.90;;;;;;5013213;27;94499;-30
2023/12/30 08:05:29;;;;;;;4.63;1.75;;;5.00;99.90;;;;;;5016804;28;93718;-31
2023/12/30 08:07:54;;;;;;;2.88;1.40;;;4.90;99.90;;;;;;5014419;28;94394;-28
2023/12/30 08:10:20;;;;;;;3.85;1.40;;;4.90;99.90;;;;;;5016356;28;93953;-32
2023/12/30 08:12:46;;;;;;;5.03;1.55;;;4.90;99.90;;;;;;5015214;28;92555;-30
2023/12/30 08:15:11;;;;;;;4.20;1.85;;;4.90;99.90;;;;;;5015826;28;94879;-33
2023/12/30 08:17:37;;;;;;;6.93;2.08;;;5.00;99.90;;;;;;5015666;28;94358;-29
2023/12/30 08:20:04;;;;;;;5.72;2.65;;;5.00;99.90;;;;;;5015988;28;94410;-31
2023/12/30 08:22:30;;;;;;;2.15;1.92;;;5.00;99.90;;;;;;5000612;27;95123;-33
2023/12/30 08:24:55;;;;;;;12.13;2.35;;;5.00;99.90;;;;;;5011307;28;93907;-29
2023/12/30 08:27:21;;;;;;;5.18;1.83;;;5.00;99.90;;;;;;5014562;28;94856;-33
2023/12/30 08:29:46;;;;;;;2.95;2.03;;;5.00;99.90;;;;;;5012057;28;94951;-31
2023/12/30 08:32:12;;;;;;;2.78;2.15;;;5.10;99.90;;;;;;4998600;28;94591;-33
2023/12/30 08:34:37;;;;;;;4.80;1.65;;;5.10;99.90;;;;;;4998818;28;94113;-29
2023/12/30 08:37:08;;;;;;;8.05;1.98;;;5.10;99.90;;;;;;4998138;28;94760;-29
2023/12/30 08:39:35;;;;;;;3.90;1.70;;;5.10;99.90;;;;;;4998693;28;95189;-30
2023/12/30 08:42:02;;;;;;;17.23;2.17;;;5.20;99.90;;;;;;4999063;28;92706;-30
2023/12/30 08:44:28;;;;;;;12.95;2.88;;;5.20;99.90;;;;;;4986616;28;93408;-33
2023/12/30 08:46:53;;;;;;;6.10;1.77;;;5.30;99.90;;;;;;4997976;28;94437;-31
2023/12/30 08:49:19;;;;;;;4.82;1.75;;;5.30;99.90;;;;;;4997161;28;94619;-33
2023/12/30 08:51:45;;;;;;;4.60;1.83;;;5.30;99.90;;;;;;4999267;28;93484;-33
2023/12/30 08:54:10;;;;;;;4.80;1.70;;;5.40;99.90;;;;;;4998252;28;94094;-29
2023/12/30 08:56:37;;;;;;;3.25;2.42;;;5.40;99.90;;;;;;4993423;28;94421;-31
2023/12/30 08:59:03;;;;;;;5.45;1.65;;;5.50;99.90;;;;;;4990902;28;96093;-30
2023/12/30 09:01:28;;;;;;;4.93;2.45;;;5.50;99.90;;;;;;5000008;28;92204;-31
2023/12/30 09:03:54;;;;;;;3.38;1.23;;;5.50;99.90;;;;;;4998281;28;93694;-30
2023/12/30 09:06:20;;;;;;;18.38;2.30;;;5.60;99.90;;;;;;4998471;28;94367;-30
2023/12/30 09:08:46;;;;;;;3.88;1.85;;;5.60;99.90;;;;;;4999047;28;95204;-30
2023/12/30 09:11:22;;;;;;;2.22;1.88;;;5.60;99.90;;;;;;4999495;28;93446;-31
2023/12/30 09:13:49;;;;;;;5.88;1.88;;;5.60;99.90;;;;;;4988175;28;93964;-30
2023/12/30 09:16:15;;;;;;;3.15;1.77;;;5.60;99.90;;;;;;4999185;28;95356;-30
2023/12/30 09:18:41;;;;;;;1.90;1.80;;;5.70;99.90;;;;;;4997355;28;94823;-30
2023/12/30 09:21:07;;;;;;;6.03;1.92;;;5.70;99.90;;;;;;4999632;28;94426;-30
2023/12/30 09:23:33;;;;;;;5.40;2.78;;;5.70;99.90;;;;;;4998203;28;93291;-32
2023/12/30 09:25:58;;;;;;;3.20;1.38;;;5.80;99.90;;;;;;4997980;28;94810;-31
2023/12/30 09:28:25;;;;;;;9.20;2.80;;;5.90;99.90;;;;;;5006242;28;93088;-29
2023/12/30 09:30:50;;;;;;;13.75;1.85;;;5.90;99.90;;;;;;5000465;28;94036;-29
2023/12/30 09:33:16;;;;;;;6.70;1.48;;;5.90;99.90;;;;;;5010887;27;94102;-33
2023/12/30 09:35:42;;;;;;;6.93;2.25;;;5.90;99.90;;;;;;5016833;28;95426;-31
2023/12/30 09:38:07;;;;;;;6.03;2.20;;;6.00;99.90;;;;;;5016459;28;94679;-35
2023/12/30 09:40:33;;;;;;;7.43;2.40;;;6.00;99.90;;;;;;5016130;28;95464;-31
2023/12/30 09:43:05;;;;;;;7.88;3.60;;;6.00;99.90;;;;;;5015879;28;92767;-32
2023/12/30 09:45:34;;;;;;;4.53;2.70;;;6.00;99.90;;;;;;5015252;27;94539;-30
2023/12/30 09:48:02;;;;;;;5.95;1.95;;;6.00;99.90;;;;;;5015654;28;94556;-29
2023/12/30 09:50:29;;;;;;;;;;;6.10;99.90;;;;;;5015936;27;94395;-30
2023/12/30 09:52:55;;;;;;;9.43;2.85;;;6.10;99.90;;;;;;5017366;27;93868;-30
2023/12/30 09:55:21;;;;;;;5.20;2.58;;;6.10;99.90;;;;;;5015112;28;94687;-31
2023/12/30 09:57:47;;;;;;;10.07;3.25;;;6.10;99.90;;;;;;5016034;28;93443;-30
2023/12/30 10:00:16;;;;;;;9.07;4.40;;;6.20;99.90;;;;;;5014687;28;93416;-33
2023/12/30 10:02:43;;;;;;;11.48;4.72;;;6.20;99.90;;;;;;5014804;27;93610;-30
2023/12/30 10:05:09;;;;;;;8.57;3.78;;;6.20;99.90;;;;;;4998076;27;95152;-31
2023/12/30 10:07:35;;;;;;;4.93;3.63;;;6.20;99.90;;;;;;5008954;27;95593;-29
2023/12/30 10:10:01;;;;;;;10.70;4.13;;;6.20;99.90;;;;;;5014933;27;92163;-30
2023/12/30 10:12:26;;;;;;;12.85;5.13;;;6.30;99.90;;;;;;5015771;27;92106;-29
2023/12/30 10:14:52;;;;;;;9.63;4.85;;;6.30;99.90;;;;;;5014578;28;94561;-29
2023/12/30 10:17:18;;;;;;;11.60;4.60;;;6.30;99.90;;;;;;5015916;28;95484;-32
2023/12/30 10:19:44;;;;;;;5.53;4.32;;;6.30;99.90;;;;;;5014356;28;92523;-29
2023/12/30 10:22:10;;;;;;;9.93;4.97;;;6.40;99.90;;;;;;5015321;27;92218;-30
2023/12/30 10:24:37;;;;;;;18.17;5.63;;;6.40;99.90;;;;;;5013657;28;94545;-30
2023/12/30 10:27:04;;;;;;;9.85;5.50;;;6.40;99.90;;;;;;5014890;27;94356;-32
2023/12/30 10:29:31;;;;;;;7.55;5.05;;;6.50;99.90;;;;;;5016072;27;93959;-31
2023/12/30 10:32:01;;;;;;;9.27;7.18;;;6.50;99.90;;;;;;5016565;27;92183;-31
2023/12/30 10:34:27;;;;;;;12.13;4.85;;;6.60;99.90;;;;;;5011823;27;94267;-32
2023/12/30 10:36:53;;;;;;;17.20;6.47;;;6.60;99.90;;;;;;4996058;28;94146;-34
2023/12/30 10:39:22;;;;;;;28.13;7.78;;;6.70;99.90;;;;;;4990752;28;93677;-30
2023/12/30 10:41:48;;;;;;;12.18;6.53;;;6.70;99.90;;;;;;4990258;28;93345;-32
2023/12/30 10:44:14;;;;;;;14.20;6.03;;;6.80;99.90;;;;;;4995451;28;94855;-31
2023/12/30 10:46:43;;;;;;;11.48;5.85;;;6.90;99.90;;;;;;4996887;28;94976;-32
2023/12/30 10:49:14;;;;;;;10.80;6.03;;;6.90;99.90;;;;;;4996364;28;94662;-32
2023/12/30 10:51:42;;;;;;;13.13;5.72;;;7.00;99.90;;;;;;4996138;28;92827;-31
2023/12/30 10:54:12;;;;;;;13.97;6.10;;;7.10;99.90;;;;;;4995967;28;96149;-33
2023/12/30 10:56:44;;;;;;;13.65;5.20;;;7.20;99.90;;;;;;4995097;28;95069;-29
2023/12/30 10:59:12;;;;;;;6.07;4.70;;;7.30;99.90;;;;;;4983735;28;94325;-32
2023/12/30 11:01:40;;;;;;;7.90;4.35;;;7.30;99.90;;;;;;4980786;28;94392;-32
2023/12/30 11:04:11;;;;;;;7.63;3.85;;;7.40;99.90;;;;;;4988065;28;94787;-31
2023/12/30 11:06:44;;;;;;;16.38;4.85;;;7.40;99.90;;;;;;4979226;28;93904;-31
2023/12/30 11:09:11;;;;;;;12.48;4.22;;;7.40;99.90;;;;;;4994596;28;94354;-30
2023/12/30 11:12:00;;;;;;;7.90;2.90;;;7.50;99.90;;;;;;4994345;28;92635;-31
2023/12/30 11:14:25;;;;;;;7.20;3.85;;;7.50;99.90;;;;;;4999597;28;94392;-30
2023/12/30 11:16:51;;;;;;;5.00;3.63;;;7.50;99.90;;;;;;5014022;28;94208;-30
2023/12/30 11:19:29;;;;;;;6.65;4.28;;;7.50;99.90;;;;;;5016184;27;95289;-28
2023/12/30 11:21:57;;;;;;;5.88;3.38;;;7.60;99.90;;;;;;5015894;27;92219;-33
2023/12/30 11:24:23;;;;;;;10.23;3.17;;;7.60;99.90;;;;;;5015032;28;93784;-32
2023/12/30 11:26:51;;;;;;;10.07;3.30;;;7.60;99.90;;;;;;5015258;28;94623;-31
2023/12/30 11:29:18;;;;;;;4.25;3.00;;;7.60;99.90;;;;;;5017282;27;92225;-32
2023/12/30 11:31:46;;;;;;;4.30;2.67;;;7.70;99.90;;;;;;5016826;28;93085;-29
2023/12/30 11:34:13;;;;;;;6.75;2.25;;;7.70;99.90;;;;;;5015918;28;94745;-32
2023/12/30 11:36:39;;;;;;;9.13;4.68;;;7.70;99.90;;;;;;5001541;28;94582;-31
2023/12/30 11:39:07;;;;;;;3.83;2.28;;;7.70;99.90;;;;;;4994514;28;95133;-33
2023/12/30 11:41:34;;;;;;;9.80;3.72;;;7.70;99.90;;;;;;5011818;28;94952;-29
2023/12/30 11:44:03;;;;;;;8.48;2.25;;;7.80;99.90;;;;;;5015105;27;95672;-30
2023/12/30 11:46:29;;;;;;;12.48;2.50;;;7.90;99.90;;;;;;5003060;28;94783;-30
2023/12/30 11:48:59;;;;;;;7.82;3.28;;;8.00;99.90;;;;;;4998809;28;93957;-30
2023/12/30 11:51:26;;;;;;;12.90;2.80;;;8.10;99.90;;;;;;5011530;28;94467;-30
2023/12/30 11:53:52;;;;;;;16.13;3.57;;;8.10;99.90;;;;;;5014378;27;94190;-33
2023/12/30 11:56:19;;;;;;;15.52;4.20;;;8.10;99.90;;;;;;5014977;28;94541;-30
2023/12/30 11:58:46;;;;;;;16.15;4.63;;;8.10;99.90;;;;;;5016666;27;92097;-34
2023/12/30 12:01:12;;;;;;;9.38;4.10;;;8.10;99.90;;;;;;5014387;28;92294;-29
2023/12/30 12:03:38;;;;;;;12.77;3.33;;;8.00;99.90;;;;;;5015972;27;95326;-30
2023/12/30 12:06:04;;;;;;;5.38;3.55;;;8.00;99.90;;;;;;5015368;28;95817;-30
2023/12/30 12:08:30;;;;;;;10.80;3.33;;;8.00;99.90;;;;;;5014227;28;93883;-29
2023/12/30 12:10:56;;;;;;;6.40;3.08;;;7.90;99.90;;;;;;5016701;28;92644;-33
2023/12/30 12:13:26;;;;;;;9.80;3.15;;;7.90;99.90;;;;;;5004147;28;94775;-31
2023/12/30 12:15:53;;;;;;;8.20;3.55;;;7.90;99.90;;;;;;4997872;28;94395;-31
2023/12/30 12:18:20;;;;;;;5.05;2.65;;;7.80;99.90;;;;;;4998303;28;94602;-31
2023/12/30 12:20:45;;;;;;;6.85;3.47;;;7.80;99.90;;;;;;4991436;28;92199;-31
2023/12/30 12:23:12;;;;;;;10.75;4.05;;;7.90;99.90;;;;;;4986731;28;96255;-29
2023/12/30 12:25:38;;;;;;;7.47;2.72;;;7.90;99.90;;;;;;4997509;28;93185;-33
2023/12/30 12:28:11;;;;;;;6.82;4.03;;;7.90;99.90;;;;;;5003860;28;93289;-33
2023/12/30 12:30:37;;;;;;;4.47;2.63;;;7.90;99.90;;;;;;5011986;27;94566;-33
2023/12/30 12:33:04;;;;;;;3.17;2.42;;;7.90;99.90;;;;;;4998095;28;95472;-32
2023/12/30 12:35:30;;;;;;;7.97;3.08;;;7.90;99.90;;;;;;5002230;28;95479;-32
2023/12/30 12:37:59;;;;;;;17.38;3.88;;;7.90;99.90;;;;;;5014282;28;93234;-31
2023/12/30 12:40:25;;;;;;;9.95;3.28;;;7.90;99.90;;;;;;5015249;28;93704;-32
2023/12/30 12:42:51;;;;;;;9.88;2.58;;;7.90;99.90;;;;;;5014775;27;95673;-30
2023/12/30 12:45:17;;;;;;;6.28;3.83;;;8.00;99.90;;;;;;5014979;27;94486;-31
2023/12/30 12:47:42;;;;;;;8.75;3.33;;;8.00;99.90;;;;;;5014900;28;93287;-30
2023/12/30 12:50:08;;;;;;;11.93;4.05;;;8.00;99.90;;;;;;5014286;28;92803;-30